createdAt,value
2023-05-08T00:00:13.489Z,1011
2023-05-08T00:01:29.778Z,1011
2023-05-08T00:02:46.092Z,1011
2023-05-08T00:04:02.368Z,1011.1
2023-05-08T00:05:18.661Z,1011
2023-05-08T00:06:34.972Z,1011
2023-05-08T00:07:51.245Z,1011
2023-05-08T00:09:07.534Z,1011
2023-05-08T00:10:23.844Z,1011
2023-05-08T00:11:40.000Z,1010.9
2023-05-08T00:12:56.422Z,1011
2023-05-08T00:14:12.718Z,1011
2023-05-08T00:15:28.036Z,1011
2023-05-08T00:16:44.319Z,1011
2023-05-08T00:18:00.613Z,1011
2023-05-08T00:19:16.918Z,1011
2023-05-08T00:20:33.200Z,1010.9
2023-05-08T00:21:49.494Z,1011
2023-05-08T00:23:05.789Z,1011
2023-05-08T00:24:22.085Z,1011
2023-05-08T00:25:38.386Z,1011
2023-05-08T00:26:54.677Z,1010.9
2023-05-08T00:28:10.976Z,1011
2023-05-08T00:29:27.261Z,1010.9
2023-05-08T00:30:43.548Z,1011
2023-05-08T00:31:58.851Z,1011
2023-05-08T00:33:15.165Z,1011.1
2023-05-08T00:34:31.449Z,1011
2023-05-08T00:35:47.752Z,1011
2023-05-08T00:37:04.049Z,1011
2023-05-08T00:38:20.341Z,1011
2023-05-08T00:39:36.622Z,1011
2023-05-08T00:40:52.919Z,1011
2023-05-08T00:42:09.206Z,1011
2023-05-08T00:43:25.504Z,1011
2023-05-08T00:44:41.803Z,1011
2023-05-08T00:45:58.082Z,1011
2023-05-08T00:47:14.388Z,1011
2023-05-08T00:48:29.687Z,1010.9
2023-05-08T00:49:45.986Z,1010.9
2023-05-08T00:51:02.286Z,1010.9
2023-05-08T00:52:18.563Z,1011
2023-05-08T00:53:34.863Z,1011
2023-05-08T00:54:51.169Z,1011
2023-05-08T00:56:07.450Z,1011
2023-05-08T00:57:23.759Z,1011
2023-05-08T00:58:40.044Z,1011.1
2023-05-08T00:59:56.339Z,1011.1
2023-05-08T01:01:12.622Z,1011.1
2023-05-08T01:02:28.918Z,1011
2023-05-08T01:03:45.212Z,1011
2023-05-08T01:05:00.529Z,1011
2023-05-08T01:06:16.821Z,1010.9
2023-05-08T01:07:33.104Z,1010.9
2023-05-08T01:08:49.400Z,1010.9
2023-05-08T01:10:05.701Z,1010.9
2023-05-08T01:11:21.995Z,1010.9
2023-05-08T01:12:38.288Z,1010.9
2023-05-08T01:13:54.571Z,1010.9
2023-05-08T01:15:10.868Z,1011
2023-05-08T01:16:27.175Z,1011
2023-05-08T01:17:43.458Z,1011
2023-05-08T01:18:59.752Z,1011.1
2023-05-08T01:20:16.042Z,1011
2023-05-08T01:21:31.369Z,1011
2023-05-08T01:22:47.649Z,1011.1
2023-05-08T01:24:03.943Z,1011.1
2023-05-08T01:25:20.248Z,1011.1
2023-05-08T01:26:36.529Z,1011.1
2023-05-08T01:27:52.825Z,1011.1
2023-05-08T01:29:09.118Z,1011.1
2023-05-08T01:30:25.413Z,1011.1
2023-05-08T01:31:41.704Z,1011
2023-05-08T01:32:58.008Z,1011
2023-05-08T01:34:14.289Z,1011
2023-05-08T01:35:30.596Z,1011
2023-05-08T01:36:46.881Z,1011.1
2023-05-08T01:38:02.190Z,1011.1
2023-05-08T01:39:18.478Z,1011.1
2023-05-08T01:40:34.791Z,1011.2
2023-05-08T01:41:51.068Z,1011.2
2023-05-08T01:43:07.360Z,1011.2
2023-05-08T01:44:23.653Z,1011.2
2023-05-08T01:45:39.956Z,1011.3
2023-05-08T01:46:56.240Z,1011.2
2023-05-08T01:48:12.538Z,1011.2
2023-05-08T01:49:28.830Z,1011.2
2023-05-08T01:50:45.126Z,1011.2
2023-05-08T01:52:01.421Z,1011.2
2023-05-08T01:53:17.000Z,1011.2
2023-05-08T01:54:34.014Z,1011.1
2023-05-08T01:55:49.324Z,1011.1
2023-05-08T01:57:05.614Z,1011.2
2023-05-08T01:58:21.909Z,1011.2
2023-05-08T01:59:38.196Z,1011.2
2023-05-08T02:00:54.486Z,1011.2
2023-05-08T02:02:09.807Z,1011.2
2023-05-08T02:03:26.097Z,1011.2
2023-05-08T02:04:42.402Z,1011.2
2023-05-08T02:05:58.696Z,1011.2
2023-05-08T02:07:14.978Z,1011.2
2023-05-08T02:08:31.274Z,1011.2
2023-05-08T02:09:47.575Z,1011.2
2023-05-08T02:11:03.864Z,1011.2
2023-05-08T02:12:20.000Z,1011.2
2023-05-08T02:13:36.461Z,1011.2
2023-05-08T02:14:52.745Z,1011.2
2023-05-08T02:16:09.038Z,1011.2
2023-05-08T02:17:25.327Z,1011.2
2023-05-08T02:18:41.747Z,1011.2
2023-05-08T02:19:58.039Z,1011.2
2023-05-08T02:21:14.322Z,1011.2
2023-05-08T02:22:30.616Z,1011.2
2023-05-08T02:23:46.921Z,1011.1
2023-05-08T02:25:03.215Z,1011.2
2023-05-08T02:26:19.503Z,1011.2
2023-05-08T02:27:35.796Z,1011.2
2023-05-08T02:28:52.094Z,1011.2
2023-05-08T02:30:08.390Z,1011.3
2023-05-08T02:31:24.675Z,1011.3
2023-05-08T02:32:40.981Z,1011.3
2023-05-08T02:33:57.265Z,1011.2
2023-05-08T02:35:12.000Z,1011.3
2023-05-08T02:36:28.865Z,1011.3
2023-05-08T02:37:45.173Z,1011.3
2023-05-08T02:39:01.449Z,1011.3
2023-05-08T02:40:17.759Z,1011.3
2023-05-08T02:41:34.054Z,1011.3
2023-05-08T02:42:50.335Z,1011.4
2023-05-08T02:44:06.629Z,1011.4
2023-05-08T02:45:22.919Z,1011.4
2023-05-08T02:46:39.216Z,1011.3
2023-05-08T02:47:55.503Z,1011.3
2023-05-08T02:49:11.802Z,1011.3
2023-05-08T02:50:28.103Z,1011.3
2023-05-08T02:51:43.403Z,1011.3
2023-05-08T02:52:59.712Z,1011.3
2023-05-08T02:54:15.994Z,1011.3
2023-05-08T02:55:32.284Z,1011.3
2023-05-08T02:56:48.527Z,1011.3
2023-05-08T02:58:04.829Z,1011.3
2023-05-08T02:59:21.113Z,1011.3
2023-05-08T03:00:37.000Z,1011.3
2023-05-08T03:01:53.600Z,1011.3
2023-05-08T03:03:09.899Z,1011.3
2023-05-08T03:04:26.203Z,1011.3
2023-05-08T03:05:42.485Z,1011.3
2023-05-08T03:06:58.776Z,1011.3
2023-05-08T03:08:14.103Z,1011.3
2023-05-08T03:09:30.337Z,1011.3
2023-05-08T03:10:46.588Z,1011.2
2023-05-08T03:12:02.820Z,1011.3
2023-05-08T03:13:19.071Z,1011.2
2023-05-08T03:14:35.298Z,1011.2
2023-05-08T03:15:51.540Z,1011.3
2023-05-08T03:17:07.776Z,1011.2
2023-05-08T03:18:24.029Z,1011.2
2023-05-08T03:19:40.273Z,1011.2
2023-05-08T03:20:56.508Z,1011.2
2023-05-08T03:22:12.747Z,1011.2
2023-05-08T03:23:28.982Z,1011.3
2023-05-08T03:24:44.234Z,1011.3
2023-05-08T03:26:00.470Z,1011.3
2023-05-08T03:27:16.712Z,1011.3
2023-05-08T03:28:32.964Z,1011.3
2023-05-08T03:29:49.204Z,1011.3
2023-05-08T03:31:05.436Z,1011.3
2023-05-08T03:32:21.668Z,1011.3
2023-05-08T03:33:37.910Z,1011.3
2023-05-08T03:34:54.152Z,1011.3
2023-05-08T03:36:10.396Z,1011.3
2023-05-08T03:37:26.639Z,1011.4
2023-05-08T03:38:42.880Z,1011.4
2023-05-08T03:39:59.122Z,1011.4
2023-05-08T03:41:14.374Z,1011.4
2023-05-08T03:42:30.613Z,1011.4
2023-05-08T03:43:46.854Z,1011.4
2023-05-08T03:45:03.081Z,1011.4
2023-05-08T03:46:19.324Z,1011.4
2023-05-08T03:47:35.558Z,1011.4
2023-05-08T03:48:51.808Z,1011.4
2023-05-08T03:50:08.037Z,1011.3
2023-05-08T03:51:24.293Z,1011.4
2023-05-08T03:52:40.523Z,1011.3
2023-05-08T03:53:56.765Z,1011.3
2023-05-08T03:55:13.004Z,1011.3
2023-05-08T03:56:29.243Z,1011.3
2023-05-08T03:57:44.506Z,1011.3
2023-05-08T03:59:00.739Z,1011.3
2023-05-08T04:00:16.969Z,1011.2
2023-05-08T04:02:49.466Z,1011.3
2023-05-08T04:04:05.692Z,1011.3
2023-05-08T04:05:21.942Z,1011.3
2023-05-08T04:06:38.172Z,1011.3
2023-05-08T04:07:54.413Z,1011.3
2023-05-08T04:09:10.655Z,1011.4
2023-05-08T04:10:26.890Z,1011.4
2023-05-08T04:11:43.131Z,1011.4
2023-05-08T04:12:59.366Z,1011.5
2023-05-08T04:14:14.627Z,1011.5
2023-05-08T04:15:30.872Z,1011.5
2023-05-08T04:16:47.120Z,1011.5
2023-05-08T04:18:03.348Z,1011.5
2023-05-08T04:19:19.595Z,1011.5
2023-05-08T04:20:35.837Z,1011.5
2023-05-08T04:21:52.060Z,1011.5
2023-05-08T04:23:08.306Z,1011.5
2023-05-08T04:24:24.548Z,1011.5
2023-05-08T04:25:40.784Z,1011.5
2023-05-08T04:26:57.022Z,1011.5
2023-05-08T04:28:13.274Z,1011.5
2023-05-08T04:29:29.505Z,1011.5
2023-05-08T04:30:45.749Z,1011.6
2023-05-08T04:32:01.017Z,1011.6
2023-05-08T04:33:17.243Z,1011.6
2023-05-08T04:34:33.477Z,1011.6
2023-05-08T04:35:49.715Z,1011.6
2023-05-08T04:37:05.954Z,1011.6
2023-05-08T04:38:22.213Z,1011.6
2023-05-08T04:39:38.438Z,1011.6
2023-05-08T04:40:54.683Z,1011.7
2023-05-08T04:42:10.929Z,1011.7
2023-05-08T04:43:27.155Z,1011.7
2023-05-08T04:44:43.401Z,1011.7
2023-05-08T04:45:59.000Z,1011.7
2023-05-08T04:47:15.875Z,1011.7
2023-05-08T04:48:31.136Z,1011.7
2023-05-08T04:49:47.370Z,1011.7
2023-05-08T04:51:03.623Z,1011.7
2023-05-08T04:52:19.856Z,1011.7
2023-05-08T04:53:36.088Z,1011.7
2023-05-08T04:54:52.342Z,1011.7
2023-05-08T04:56:08.586Z,1011.8
2023-05-08T04:57:24.815Z,1011.8
2023-05-08T04:58:41.050Z,1011.8
2023-05-08T04:59:57.287Z,1011.8
2023-05-08T05:01:13.527Z,1011.8
2023-05-08T05:02:29.782Z,1011.8
2023-05-08T05:03:46.006Z,1011.8
2023-05-08T05:05:01.271Z,1011.8
2023-05-08T05:06:17.501Z,1011.9
2023-05-08T05:07:33.752Z,1011.8
2023-05-08T05:08:49.984Z,1011.9
2023-05-08T05:10:06.221Z,1011.9
2023-05-08T05:11:22.462Z,1011.9
2023-05-08T05:12:38.705Z,1011.8
2023-05-08T05:13:54.954Z,1011.8
2023-05-08T05:15:11.184Z,1011.8
2023-05-08T05:16:27.422Z,1011.8
2023-05-08T05:17:43.659Z,1011.9
2023-05-08T05:18:59.913Z,1011.8
2023-05-08T05:20:16.142Z,1011.9
2023-05-08T05:21:31.395Z,1011.9
2023-05-08T05:22:47.640Z,1011.9
2023-05-08T05:24:03.876Z,1011.9
2023-05-08T05:25:20.120Z,1011.9
2023-05-08T05:26:36.363Z,1011.9
2023-05-08T05:27:52.000Z,1011.9
2023-05-08T05:29:08.836Z,1011.9
2023-05-08T05:30:25.077Z,1011.9
2023-05-08T05:31:41.325Z,1011.9
2023-05-08T05:32:57.557Z,1011.9
2023-05-08T05:34:13.793Z,1011.9
2023-05-08T05:35:30.036Z,1011.9
2023-05-08T05:36:46.281Z,1011.9
2023-05-08T05:38:01.525Z,1011.9
2023-05-08T05:39:17.767Z,1011.9
2023-05-08T05:40:34.021Z,1011.9
2023-05-08T05:41:50.241Z,1012
2023-05-08T05:43:06.499Z,1012
2023-05-08T05:44:22.735Z,1011.9
2023-05-08T05:45:38.978Z,1012
2023-05-08T05:46:55.204Z,1011.9
2023-05-08T05:48:11.444Z,1011.9
2023-05-08T05:49:27.684Z,1012
2023-05-08T05:50:43.919Z,1011.9
2023-05-08T05:52:00.159Z,1011.9
2023-05-08T05:53:16.406Z,1011.9
2023-05-08T05:54:31.664Z,1011.9
2023-05-08T05:55:47.893Z,1011.9
2023-05-08T05:57:04.134Z,1011.9
2023-05-08T05:58:20.377Z,1012
2023-05-08T05:59:36.614Z,1012
2023-05-08T06:00:52.859Z,1011.9
2023-05-08T06:02:09.102Z,1012
2023-05-08T06:03:25.337Z,1012
2023-05-08T06:04:41.573Z,1011.9
2023-05-08T06:05:57.824Z,1011.9
2023-05-08T06:07:14.063Z,1011.9
2023-05-08T06:08:30.303Z,1011.9
2023-05-08T06:09:46.537Z,1012
2023-05-08T06:11:01.792Z,1011.9
2023-05-08T06:12:18.027Z,1011.9
2023-05-08T06:13:34.265Z,1012
2023-05-08T06:14:50.501Z,1011.9
2023-05-08T06:16:06.752Z,1011.9
2023-05-08T06:17:22.002Z,1011.9
2023-05-08T06:18:38.256Z,1011.9
2023-05-08T06:19:54.482Z,1011.9
2023-05-08T06:21:10.000Z,1012
2023-05-08T06:22:26.000Z,1011.9
2023-05-08T06:23:43.213Z,1011.9
2023-05-08T06:24:59.449Z,1011.9
2023-05-08T06:26:15.692Z,1012
2023-05-08T06:27:31.927Z,1012
2023-05-08T06:28:48.162Z,1012
2023-05-08T06:30:04.412Z,1012
2023-05-08T06:31:20.645Z,1012.1
2023-05-08T06:32:36.885Z,1012.1
2023-05-08T06:33:52.148Z,1012
2023-05-08T06:35:08.386Z,1012.1
2023-05-08T06:36:24.000Z,1012
2023-05-08T06:37:40.000Z,1012
2023-05-08T06:38:57.095Z,1011.9
2023-05-08T06:40:13.342Z,1012
2023-05-08T06:41:29.588Z,1011.9
2023-05-08T06:42:45.829Z,1012
2023-05-08T06:44:02.063Z,1012
2023-05-08T06:45:18.313Z,1012
2023-05-08T06:46:34.537Z,1012
2023-05-08T06:47:50.791Z,1012
2023-05-08T06:49:07.017Z,1012
2023-05-08T06:50:22.279Z,1012
2023-05-08T06:51:38.519Z,1012
2023-05-08T06:52:54.766Z,1012
2023-05-08T06:54:11.001Z,1012
2023-05-08T06:55:27.240Z,1012
2023-05-08T06:56:43.489Z,1012
2023-05-08T06:57:59.717Z,1012
2023-05-08T06:59:15.961Z,1012
2023-05-08T07:00:32.199Z,1012
2023-05-08T07:01:48.451Z,1012
2023-05-08T07:03:04.681Z,1012
2023-05-08T07:04:20.916Z,1012
2023-05-08T07:05:37.159Z,1012
2023-05-08T07:06:52.420Z,1012
2023-05-08T07:08:08.657Z,1012
2023-05-08T07:09:24.899Z,1012
2023-05-08T07:10:41.133Z,1012
2023-05-08T07:11:57.387Z,1012
2023-05-08T07:13:13.622Z,1012
2023-05-08T07:14:29.000Z,1012
2023-05-08T07:15:46.102Z,1012
2023-05-08T07:17:02.342Z,1012.1
2023-05-08T07:18:18.581Z,1012
2023-05-08T07:19:34.815Z,1012
2023-05-08T07:20:51.069Z,1012
2023-05-08T07:22:07.305Z,1012
2023-05-08T07:23:22.561Z,1012
2023-05-08T07:24:38.790Z,1012.1
2023-05-08T07:25:55.033Z,1012
2023-05-08T07:27:11.280Z,1012
2023-05-08T07:28:27.528Z,1012.1
2023-05-08T07:29:43.752Z,1012.1
2023-05-08T07:30:59.991Z,1012.1
2023-05-08T07:32:16.231Z,1012.1
2023-05-08T07:33:32.476Z,1012.1
2023-05-08T07:34:48.711Z,1012.1
2023-05-08T07:36:04.968Z,1012
2023-05-08T07:37:21.192Z,1012.1
2023-05-08T07:38:37.435Z,1012
2023-05-08T07:39:52.701Z,1012.1
2023-05-08T07:41:08.000Z,1012.1
2023-05-08T07:42:25.168Z,1012
2023-05-08T07:43:41.414Z,1012
2023-05-08T07:44:57.658Z,1012
2023-05-08T07:46:13.908Z,1012
2023-05-08T07:47:30.130Z,1012
2023-05-08T07:48:46.380Z,1012
2023-05-08T07:50:02.610Z,1012
2023-05-08T07:51:18.849Z,1012
2023-05-08T07:52:35.090Z,1011.9
2023-05-08T07:53:51.344Z,1012
2023-05-08T07:55:07.572Z,1011.9
2023-05-08T07:56:22.838Z,1012
2023-05-08T07:57:39.066Z,1012
2023-05-08T07:58:55.311Z,1012
2023-05-08T08:00:11.000Z,1011.9
2023-05-08T08:01:27.788Z,1011.9
2023-05-08T08:02:44.043Z,1011.9
2023-05-08T08:04:00.000Z,1011.9
2023-05-08T08:05:16.520Z,1012
2023-05-08T08:06:32.750Z,1012
2023-05-08T08:07:49.003Z,1011.9
2023-05-08T08:09:05.230Z,1012
2023-05-08T08:10:21.466Z,1012
2023-05-08T08:11:37.711Z,1012.1
2023-05-08T08:12:52.968Z,1012.1
2023-05-08T08:14:09.213Z,1012.1
2023-05-08T08:15:25.445Z,1012.1
2023-05-08T08:16:41.685Z,1012
2023-05-08T08:17:57.941Z,1012
2023-05-08T08:19:14.164Z,1012
2023-05-08T08:20:30.421Z,1012
2023-05-08T08:21:46.648Z,1012
2023-05-08T08:23:02.895Z,1012
2023-05-08T08:24:19.129Z,1012
2023-05-08T08:25:35.369Z,1012
2023-05-08T08:26:51.605Z,1012
2023-05-08T08:28:07.849Z,1012
2023-05-08T08:29:23.101Z,1011.9
2023-05-08T08:30:39.356Z,1011.9
2023-05-08T08:31:55.584Z,1012
2023-05-08T08:33:11.832Z,1012
2023-05-08T08:34:28.069Z,1012
2023-05-08T08:35:44.307Z,1012
2023-05-08T08:37:00.536Z,1012
2023-05-08T08:38:16.778Z,1012
2023-05-08T08:39:33.024Z,1011.9
2023-05-08T08:40:49.254Z,1011.9
2023-05-08T08:42:05.495Z,1012
2023-05-08T08:43:21.744Z,1012
2023-05-08T08:44:37.980Z,1012
2023-05-08T08:45:53.231Z,1012
2023-05-08T08:47:09.473Z,1012
2023-05-08T08:48:25.707Z,1012
2023-05-08T08:49:41.965Z,1012
2023-05-08T08:50:58.188Z,1011.9
2023-05-08T08:52:14.427Z,1011.9
2023-05-08T08:53:30.675Z,1012
2023-05-08T08:54:46.909Z,1012
2023-05-08T08:56:03.142Z,1012
2023-05-08T08:57:19.397Z,1012
2023-05-08T08:58:35.637Z,1012.1
2023-05-08T08:59:51.875Z,1012
2023-05-08T09:01:08.103Z,1012
2023-05-08T09:02:23.358Z,1012
2023-05-08T09:03:39.609Z,1011.9
2023-05-08T09:04:55.841Z,1012
2023-05-08T09:06:12.088Z,1012.1
2023-05-08T09:07:28.322Z,1012
2023-05-08T09:08:44.561Z,1012
2023-05-08T09:10:00.789Z,1012
2023-05-08T09:11:17.037Z,1012
2023-05-08T09:12:33.272Z,1012
2023-05-08T09:13:49.513Z,1012
2023-05-08T09:15:05.750Z,1012
2023-05-08T09:16:21.987Z,1012
2023-05-08T09:17:38.228Z,1011.9
2023-05-08T09:18:53.479Z,1012
2023-05-08T09:20:09.721Z,1012
2023-05-08T09:21:25.964Z,1012
2023-05-08T09:22:42.193Z,1011.9
2023-05-08T09:23:58.440Z,1012
2023-05-08T09:25:14.680Z,1011.9
2023-05-08T09:26:30.918Z,1011.9
2023-05-08T09:27:47.167Z,1011.9
2023-05-08T09:29:03.392Z,1011.9
2023-05-08T09:30:19.632Z,1011.9
2023-05-08T09:31:35.874Z,1011.9
2023-05-08T09:32:52.106Z,1011.9
2023-05-08T09:34:08.359Z,1011.9
2023-05-08T09:35:23.600Z,1011.9
2023-05-08T09:36:39.847Z,1011.9
2023-05-08T09:37:56.091Z,1011.9
2023-05-08T09:39:12.333Z,1011.9
2023-05-08T09:40:28.556Z,1011.9
2023-05-08T09:41:44.797Z,1011.9
2023-05-08T09:43:01.041Z,1012
2023-05-08T09:44:17.275Z,1012
2023-05-08T09:45:33.515Z,1011.9
2023-05-08T09:46:49.749Z,1011.9
2023-05-08T09:48:05.995Z,1012
2023-05-08T09:49:22.238Z,1012
2023-05-08T09:50:38.468Z,1012
2023-05-08T09:51:53.721Z,1012
2023-05-08T09:53:09.965Z,1012
2023-05-08T09:54:26.197Z,1012
2023-05-08T09:55:42.441Z,1011.9
2023-05-08T09:56:58.686Z,1011.9
2023-05-08T09:58:14.914Z,1011.9
2023-05-08T09:59:31.160Z,1011.9
2023-05-08T10:00:47.392Z,1011.9
2023-05-08T10:02:03.641Z,1011.8
2023-05-08T10:03:19.868Z,1011.9
2023-05-08T10:04:36.120Z,1011.8
2023-05-08T10:05:52.362Z,1011.8
2023-05-08T10:07:08.594Z,1011.8
2023-05-08T10:08:23.851Z,1011.8
2023-05-08T10:09:40.082Z,1011.7
2023-05-08T10:10:56.321Z,1011.7
2023-05-08T10:12:12.570Z,1011.8
2023-05-08T10:13:28.799Z,1011.8
2023-05-08T10:14:45.052Z,1011.8
2023-05-08T10:16:01.289Z,1011.8
2023-05-08T10:17:17.526Z,1011.8
2023-05-08T10:18:33.754Z,1011.8
2023-05-08T10:19:49.990Z,1011.9
2023-05-08T10:21:06.231Z,1011.8
2023-05-08T10:22:22.470Z,1011.8
2023-05-08T10:23:38.706Z,1011.9
2023-05-08T10:24:53.962Z,1011.9
2023-05-08T10:26:10.198Z,1011.8
2023-05-08T10:27:26.441Z,1011.8
2023-05-08T10:28:42.674Z,1011.8
2023-05-08T10:29:58.922Z,1011.8
2023-05-08T10:31:15.160Z,1011.8
2023-05-08T10:32:30.417Z,1011.8
2023-05-08T10:33:46.666Z,1011.8
2023-05-08T10:35:02.901Z,1011.8
2023-05-08T10:36:19.133Z,1011.7
2023-05-08T10:37:35.380Z,1011.8
2023-05-08T10:38:51.619Z,1011.8
2023-05-08T10:40:07.846Z,1011.7
2023-05-08T10:41:24.092Z,1011.6
2023-05-08T10:42:40.326Z,1011.6
2023-05-08T10:43:56.570Z,1011.6
2023-05-08T10:45:12.818Z,1011.7
2023-05-08T10:46:29.056Z,1011.7
2023-05-08T10:47:45.289Z,1011.6
2023-05-08T10:49:00.535Z,1011.6
2023-05-08T10:50:16.779Z,1011.5
2023-05-08T10:51:33.023Z,1011.5
2023-05-08T10:52:49.251Z,1011.6
2023-05-08T10:54:05.503Z,1011.5
2023-05-08T10:55:21.734Z,1011.5
2023-05-08T10:56:37.986Z,1011.5
2023-05-08T10:57:54.225Z,1011.6
2023-05-08T10:59:10.452Z,1011.5
2023-05-08T11:00:26.691Z,1011.5
2023-05-08T11:01:42.931Z,1011.4
2023-05-08T11:02:59.170Z,1011.5
2023-05-08T11:04:15.405Z,1011.5
2023-05-08T11:05:30.665Z,1011.5
2023-05-08T11:06:46.906Z,1011.5
2023-05-08T11:08:03.150Z,1011.5
2023-05-08T11:09:19.386Z,1011.5
2023-05-08T11:10:35.621Z,1011.4
2023-05-08T11:11:51.860Z,1011.4
2023-05-08T11:13:08.100Z,1011.4
2023-05-08T11:14:24.338Z,1011.3
2023-05-08T11:15:40.591Z,1011.4
2023-05-08T11:16:56.830Z,1011.4
2023-05-08T11:18:13.064Z,1011.5
2023-05-08T11:19:29.296Z,1011.4
2023-05-08T11:20:45.540Z,1011.4
2023-05-08T11:22:00.804Z,1011.4
2023-05-08T11:23:17.027Z,1011.5
2023-05-08T11:24:33.280Z,1011.4
2023-05-08T11:25:49.520Z,1011.3
2023-05-08T11:27:05.759Z,1011.3
2023-05-08T11:28:21.987Z,1011.4
2023-05-08T11:29:38.240Z,1011.3
2023-05-08T11:30:54.467Z,1011.3
2023-05-08T11:32:10.715Z,1011.3
2023-05-08T11:33:26.943Z,1011.3
2023-05-08T11:34:43.188Z,1011.2
2023-05-08T11:35:59.428Z,1011.2
2023-05-08T11:37:15.664Z,1011.2
2023-05-08T11:38:30.919Z,1011.2
2023-05-08T11:39:47.163Z,1011.2
2023-05-08T11:41:03.395Z,1011.2
2023-05-08T11:42:19.643Z,1011.3
2023-05-08T11:43:35.887Z,1011.2
2023-05-08T11:44:52.133Z,1011.1
2023-05-08T11:46:08.366Z,1011.1
2023-05-08T11:47:24.595Z,1011.1
2023-05-08T11:48:40.848Z,1011
2023-05-08T11:49:57.086Z,1011
2023-05-08T11:51:13.334Z,1011
2023-05-08T11:52:29.575Z,1011.1
2023-05-08T11:53:45.820Z,1011.1
2023-05-08T11:55:01.057Z,1011.2
2023-05-08T11:56:17.302Z,1011.1
2023-05-08T11:57:33.545Z,1011.1
2023-05-08T11:58:49.777Z,1011
2023-05-08T12:00:06.013Z,1011
2023-05-08T12:01:22.276Z,1011
2023-05-08T12:02:38.508Z,1011.1
2023-05-08T12:03:54.747Z,1011
2023-05-08T12:05:10.993Z,1011
2023-05-08T12:06:27.226Z,1011.1
2023-05-08T12:07:43.479Z,1011
2023-05-08T12:08:59.695Z,1011
2023-05-08T12:10:15.946Z,1011
2023-05-08T12:11:31.201Z,1011
2023-05-08T12:12:47.444Z,1011
2023-05-08T12:14:03.697Z,1011
2023-05-08T12:15:19.000Z,1010.9
2023-05-08T12:16:36.156Z,1010.9
2023-05-08T12:17:52.418Z,1011
2023-05-08T12:19:08.643Z,1010.9
2023-05-08T12:20:24.897Z,1010.9
2023-05-08T12:21:41.128Z,1010.9
2023-05-08T12:22:57.355Z,1010.8
2023-05-08T12:24:13.610Z,1010.8
2023-05-08T12:25:29.841Z,1010.9
2023-05-08T12:26:46.078Z,1010.9
2023-05-08T12:28:01.345Z,1010.9
2023-05-08T12:29:17.578Z,1010.9
2023-05-08T12:30:33.809Z,1010.8
2023-05-08T12:31:50.000Z,1010.9
2023-05-08T12:33:06.295Z,1010.9
2023-05-08T12:34:22.534Z,1010.9
2023-05-08T12:35:38.778Z,1010.8
2023-05-08T12:36:55.010Z,1010.8
2023-05-08T12:38:11.248Z,1010.8
2023-05-08T12:39:27.489Z,1010.8
2023-05-08T12:40:43.739Z,1010.7
2023-05-08T12:41:59.000Z,1010.7
2023-05-08T12:43:16.212Z,1010.6
2023-05-08T12:44:31.459Z,1010.7
2023-05-08T12:45:47.702Z,1010.7
2023-05-08T12:47:03.937Z,1010.7
2023-05-08T12:48:20.000Z,1010.7
2023-05-08T12:49:36.416Z,1010.6
2023-05-08T12:50:52.662Z,1010.7
2023-05-08T12:52:08.889Z,1010.6
2023-05-08T12:53:25.142Z,1010.7
2023-05-08T12:54:41.385Z,1010.6
2023-05-08T12:55:57.612Z,1010.7
2023-05-08T12:57:13.000Z,1010.7
2023-05-08T12:58:30.095Z,1010.7
2023-05-08T12:59:46.337Z,1010.6
2023-05-08T13:01:01.589Z,1010.5
2023-05-08T13:02:17.833Z,1010.6
2023-05-08T13:03:34.061Z,1010.6
2023-05-08T13:04:50.301Z,1010.6
2023-05-08T13:06:06.544Z,1010.5
2023-05-08T13:07:22.788Z,1010.5
2023-05-08T13:08:39.020Z,1010.5
2023-05-08T13:09:55.261Z,1010.5
2023-05-08T13:11:11.494Z,1010.6
2023-05-08T13:12:27.744Z,1010.5
2023-05-08T13:13:43.976Z,1010.5
2023-05-08T13:15:00.215Z,1010.5
2023-05-08T13:16:16.450Z,1010.5
2023-05-08T13:17:31.709Z,1010.5
2023-05-08T13:18:47.947Z,1010.4
2023-05-08T13:20:04.186Z,1010.4
2023-05-08T13:21:20.433Z,1010.4
2023-05-08T13:22:36.661Z,1010.4
2023-05-08T13:23:52.896Z,1010.5
2023-05-08T13:25:09.137Z,1010.4
2023-05-08T13:26:25.380Z,1010.3
2023-05-08T13:27:41.608Z,1010.3
2023-05-08T13:28:57.853Z,1010.3
2023-05-08T13:30:14.107Z,1010.3
2023-05-08T13:31:30.332Z,1010.3
2023-05-08T13:32:46.582Z,1010.2
2023-05-08T13:34:01.821Z,1010.2
2023-05-08T13:35:18.065Z,1010.2
2023-05-08T13:36:34.315Z,1010.1
2023-05-08T13:37:50.549Z,1010.2
2023-05-08T13:39:06.777Z,1010.2
2023-05-08T13:40:23.013Z,1010.1
2023-05-08T13:41:39.251Z,1010.1
2023-05-08T13:42:55.486Z,1010.1
2023-05-08T13:44:11.728Z,1010.2
2023-05-08T13:45:27.967Z,1010.1
2023-05-08T13:46:44.206Z,1010.1
2023-05-08T13:48:00.443Z,1010.1
2023-05-08T13:49:16.683Z,1010.1
2023-05-08T13:50:31.949Z,1010.1
2023-05-08T13:51:48.188Z,1010.1
2023-05-08T13:53:04.000Z,1010.1
2023-05-08T13:54:20.657Z,1010.1
2023-05-08T13:55:36.890Z,1010.1
2023-05-08T13:56:53.137Z,1010.1
2023-05-08T13:58:09.367Z,1010
2023-05-08T13:59:25.608Z,1010
2023-05-08T14:00:41.850Z,1010
2023-05-08T14:01:58.079Z,1009.9
2023-05-08T14:03:14.321Z,1010
2023-05-08T14:04:30.557Z,1010
2023-05-08T14:05:46.810Z,1010
2023-05-08T14:07:02.054Z,1009.9
2023-05-08T14:08:18.292Z,1009.9
2023-05-08T14:09:34.534Z,1009.8
2023-05-08T14:10:50.771Z,1009.8
2023-05-08T14:12:07.009Z,1009.9
2023-05-08T14:13:23.248Z,1009.8
2023-05-08T14:14:39.485Z,1009.8
2023-05-08T14:15:55.719Z,1009.8
2023-05-08T14:17:11.000Z,1009.8
2023-05-08T14:18:28.196Z,1009.8
2023-05-08T14:19:44.434Z,1009.7
2023-05-08T14:21:00.675Z,1009.7
2023-05-08T14:22:16.909Z,1009.8
2023-05-08T14:23:32.168Z,1009.7
2023-05-08T14:24:48.407Z,1009.7
2023-05-08T14:26:04.652Z,1009.8
2023-05-08T14:27:20.884Z,1009.7
2023-05-08T14:28:37.123Z,1009.7
2023-05-08T14:29:53.374Z,1009.7
2023-05-08T14:31:09.608Z,1009.7
2023-05-08T14:32:25.835Z,1009.6
2023-05-08T14:33:42.083Z,1009.7
2023-05-08T14:34:58.325Z,1009.7
2023-05-08T14:36:14.561Z,1009.7
2023-05-08T14:37:30.791Z,1009.6
2023-05-08T14:38:47.035Z,1009.7
2023-05-08T14:40:02.283Z,1009.7
2023-05-08T14:41:18.536Z,1009.7
2023-05-08T14:42:34.758Z,1009.7
2023-05-08T14:43:51.000Z,1009.7
2023-05-08T14:45:07.248Z,1009.7
2023-05-08T14:46:23.483Z,1009.7
2023-05-08T14:47:38.753Z,1009.7
2023-05-08T14:48:54.975Z,1009.7
2023-05-08T14:50:11.209Z,1009.6
2023-05-08T14:51:27.450Z,1009.7
2023-05-08T14:52:43.687Z,1009.6
2023-05-08T14:53:59.925Z,1009.7
2023-05-08T14:55:16.176Z,1009.7
2023-05-08T14:56:32.406Z,1009.7
2023-05-08T14:57:48.658Z,1009.7
2023-05-08T14:59:04.893Z,1009.7
2023-05-08T15:00:21.000Z,1009.7
2023-05-08T15:01:37.369Z,1009.7
2023-05-08T15:02:53.597Z,1009.8
2023-05-08T15:04:08.857Z,1009.7
2023-05-08T15:05:25.088Z,1009.8
2023-05-08T15:06:41.328Z,1009.7
2023-05-08T15:07:57.570Z,1009.7
2023-05-08T15:09:13.817Z,1009.7
2023-05-08T15:10:30.040Z,1009.7
2023-05-08T15:11:46.291Z,1009.7
2023-05-08T15:13:02.517Z,1009.7
2023-05-08T15:14:18.755Z,1009.6
2023-05-08T15:15:34.996Z,1009.7
2023-05-08T15:16:51.239Z,1009.7
2023-05-08T15:18:07.476Z,1009.6
2023-05-08T15:19:23.719Z,1009.7
2023-05-08T15:20:38.978Z,1009.7
2023-05-08T15:21:55.206Z,1009.7
2023-05-08T15:23:11.449Z,1009.7
2023-05-08T15:24:27.687Z,1009.7
2023-05-08T15:25:43.941Z,1009.6
2023-05-08T15:27:00.169Z,1009.6
2023-05-08T15:28:16.408Z,1009.6
2023-05-08T15:29:32.640Z,1009.6
2023-05-08T15:30:48.880Z,1009.6
2023-05-08T15:32:05.123Z,1009.7
2023-05-08T15:33:21.363Z,1009.6
2023-05-08T15:34:37.609Z,1009.7
2023-05-08T15:35:53.834Z,1009.6
2023-05-08T15:37:09.102Z,1009.6
2023-05-08T15:38:25.345Z,1009.7
2023-05-08T15:39:41.571Z,1009.7
2023-05-08T15:40:57.825Z,1009.6
2023-05-08T15:42:14.062Z,1009.7
2023-05-08T15:43:30.293Z,1009.6
2023-05-08T15:44:46.525Z,1009.6
2023-05-08T15:46:02.777Z,1009.6
2023-05-08T15:47:19.012Z,1009.6
2023-05-08T15:48:35.256Z,1009.7
2023-05-08T15:49:51.490Z,1009.6
2023-05-08T15:51:07.724Z,1009.6
2023-05-08T15:52:23.972Z,1009.7
2023-05-08T15:53:39.225Z,1009.7
2023-05-08T15:54:55.473Z,1009.7
2023-05-08T15:56:11.711Z,1009.7
2023-05-08T15:57:27.935Z,1009.7
2023-05-08T15:58:44.174Z,1009.7
2023-05-08T16:00:00.424Z,1009.7
2023-05-08T16:01:16.650Z,1009.7
2023-05-08T16:02:32.901Z,1009.7
2023-05-08T16:03:49.136Z,1009.8
2023-05-08T16:05:05.387Z,1009.8
2023-05-08T16:06:21.000Z,1009.8